Vue régionale

METAR et TAF

Vendredi 23 août 2019 à 11h05

Visibilités horizontales observées à différents aéroports. Les observations (METAR) et prévisions aéronautiques (TAF) complètes sont disponibles en cliquant sur l’icône correspondante.

  • Luxemburg (ELLX)

    Taf: TAF ELLX 230500Z 2306/2406 07007KT CAVOK TEMPO 2321/2406 VRB02KT=

    Metar: METAR ELLX 230850Z 05007KT 030V090 CAVOK 22/11 Q1026 NOSIG=

  • Spangdahlem (ETAD)

    Taf: TAF ETAD 230400Z 2304/2410 01003KT 9999 FEW030 QNH3026INS BECMG 2310/2311 09006KT 9999 FEW030 FEW200 QNH3025INS BECMG 2323/2324 03004KT 9999 SKC QNH3018TX25/2316Z TN11/2304Z=

    Metar: nil

  • Metz/Nancy (LFJL)

    Taf: TAF LFJL 230500Z 2306/2406 03005KT CAVOK TEMPO 2310/2318 09012KT=

    Metar: nil

  • Saarbrücken/Intl (EDDR)

    Taf: TAF EDDR 230500Z 2306/2406 05005KT CAVOK=

    Metar: nil

  • Hahn (EDFH)

    Taf: TAF EDFH 230500Z 2306/2406 10003KT CAVOK BECMG 2309/2311 09008KT BECMG 2319/2321 11003KT=

    Metar: nil

  • Ramstein (ETAR)

    Taf: TAF ETAR 230200Z 2302/2408 VRB06KT 9999 SKC QNH3028INS BECMG 2309/2310 10012G18KT 9999 SKC QNH3021INS BECMG 2317/2318 07006KT 9999 SKC QNH3018INS TX26/2314Z TN11/2304Z=

    Metar: nil

  • Nancy/Ochey (LFSO)

    Taf: TAF LFSO 230800Z 2309/2409 07010KT CAVOK BECMG 2402/2404 VRB01KT=

    Metar: nil

  • Liège Bierset (EBLG)

    Taf: TAF EBLG 230520Z 2306/2412 06003KT CAVOK=

    Metar: nil

  • Saint-Dizier (LFSI)

    Taf: TAF LFSI 230800Z 2309/2409 06008KT CAVOK=

    Metar: nil

  • Maastricht/Zuid Limburg (EHBK)

    Taf: TAF EHBK 230448Z 2306/2412 06004KT CAVOK=

    Metar: nil

  • Köln/Köln-Bonn (EDDK)

    Taf: TAF EDDK 230500Z 2306/2412 VRB03KT CAVOK BECMG 2309/2312 05005KT BECMG 2320/2323 12004KT=

    Metar: METAR EDDK 230850Z 14003KT 070V230 CAVOK 21/13 Q1026 NOSIG=

  • Charleroi (EBCI)

    Taf: TAF EBCI 230520Z 2306/2412 08003KT CAVOK=

    Metar: nil

  • Wiesbaden (ETOU)

    Taf: TAF ETOU 230300Z 2303/2409 VRB06KT 9999 SKC QNH3026INS BECMG 2310/2311 09009KT 9999 SKC QNH3018INS BECMG 2316/2317 VRB06KT 9999 SKC QNH3020INS TX26/2315Z TN11/2305Z=

    Metar: nil

  • Karlsruhe/Baden-Baden (EDSB)

    Taf: TAF EDSB 230500Z 2306/2406 03003KT 9000 NSC BECMG 2308/2310 02009KT BECMG 2316/2318 03004KT=

    Metar: nil

  • Chalons/Vatry (LFOK)

    Taf: TAF LFOK 230500Z 2306/2406 05008KT CAVOK=

    Metar: nil

  • Frankfurt/Main (EDDF)

    Taf: TAF EDDF 230500Z 2306/2412 05005KT CAVOK=

    Metar: METAR EDDF 230850Z VRB04KT CAVOK 23/11 Q1026 NOSIG=

  • Brüssel (EBBR)

    Taf: TAF EBBR 230520Z 2306/2412 07003KT CAVOK=

    Metar: METAR EBBR 230850Z VRB01KT CAVOK 20/14 Q1026 NOSIG=

  • Düsseldorf (EDDL)

    Taf: TAF EDDL 230500Z 2306/2412 VRB03KT CAVOK BECMG 2308/2311 03006KT BECMG 2319/2321 VRB03KT BECMG 2403/2406 11006KT=

    Metar: nil

  • Luxeuil (LFSX)

    Taf: TAF LFSX 230800Z NIL=

    Metar: nil

  • Eindhoven (EHEH)

    Taf: TAF EHEH 230502Z 2306/2412 VRB02KT CAVOK BECMG 2310/2312 06005KT=

    Metar: nil

  • Niederrhein (EDLV)

    Taf: TAF EDLV 230500Z 2306/2406 VRB03KT CAVOK=

    Metar: nil

  • Dortmund/Wickede (EDLW)

    Taf: TAF EDLW 230500Z 2306/2406 16006KT CAVOK BECMG 2306/2309 04005KT BECMG 2320/2323 11004KT=

    Metar: nil

  • Stuttgart/Echterdingen (EDDS)

    Taf: TAF EDDS 230500Z 2306/2406 VRB03KT CAVOK BECMG 2309/2311 09008KT BECMG 2316/2318 06003KT=

    Metar: METAR EDDS 230850Z 07003KT 010V150 9999 FEW032 21/13 Q1026 NOSIG=

  • Basel-Mühlhausen (LFSB)

    Taf: TAF LFSB 230500Z 2306/2406 VRB03KT CAVOK BECMG 2306/2309 36008KT BECMG 2318/2321 VRB02KT SCT030=

    Metar: METAR LFSB 230830Z 14010KT 9999 FEW031 20/14 Q1025 NOSIG=

  • Lille (LFQQ)

    Taf: TAF LFQQ 230500Z 2306/2412 VRB02KT CAVOK=

    Metar: nil

  • Paris/Charles de Gaulle (LFPG)

    Taf: TAF LFPG 230500Z 2306/2412 04007KT CAVOK TX28/2315Z TN14/2306Z=

    Metar: nil

  • Paderborn/Lippstadt (EDLP)

    Taf: TAF EDLP 230500Z 2306/2406 VRB03KT CAVOK BECMG 2306/2309 04006KT BECMG 2318/2321 14004KT=

    Metar: nil

  • Paris/Le Bourget (LFPB)

    Taf: TAF LFPB 230500Z 2306/2406 04007KT CAVOK=

    Metar: METAR LFPB 230830Z AUTO 35004KT 310V030 CAVOK 20/12 Q1025 NOSIG=

  • Rotterdam (EHRD)

    Taf: TAF EHRD 230454Z 2306/2412 19004KT CAVOK BECMG 2313/2316 06005KT=

    Metar: nil

  • Zürich/Kloten (LSZH)

    Taf: TAF LSZH 230825Z 2309/2415 05007KT 7000 FEW020 BKN025 TX23/2315Z TN13/2403Z TX26/2415Z TEMPO 2313/2324 CAVOK BECMG 2317/2320 VRB03KT BECMG 2323/2402 4000 BR BECMG 2402/2404 2000 OVC005 BECMG 2408/2410 4000 BR SCT009 BECMG 2410/2412 CAVOK=

    Metar: METAR LSZH 230850Z 03007KT 9000 FEW021 BKN024 17/13 Q1026 NOSIG=

  • Oostende/Intl (EBOS)

    Taf: TAF EBOS 230520Z 2306/2412 16002KT 8000 NSC PROB30 TEMPO 2306/2307 3800 BR PROB30 TEMPO 2411/2412 4000 BR=

    Metar: nil

  • Paris/Orly (LFPO)

    Taf: TAF LFPO 230500Z 2306/2412 04007KT CAVOK=

    Metar: nil

  • Beauvais (LFOB)

    Taf: TAF LFOB 230500Z 2306/2406 VRB03KT CAVOK TEMPO 2318/2320 01013KT=

    Metar: nil

  • Münster/Intl (EDDG)

    Taf: TAF COR EDDG 230546Z 2306/2406 VRB02KT CAVOK BECMG 2307/2310 02005KT BECMG 2403/2406 09006KT=

    Metar: METAR EDDG 230850Z VRB03KT CAVOK 22/12 Q1026 NOSIG=

  • Illesheim (ETIK)

    Taf: TAF ETIK 230600Z 2306/2412 08009KT 9999 SKC QNH3025INS BECMG 2317/2318 VRB06KT 9999 SCT200 QNH3023INS BECMG 2408/2409 07012KT 9999 SKC QNH3018INS TX24/2313Z TN11/2403Z=

    Metar: nil

  • Duebendorf (LSMD)

    Taf: TAF LSMD 230500Z NIL=

    Metar: nil

  • Villacoublay (LFPV)

    Taf: TAF LFPV 230800Z 2309/2409 04006KT CAVOK=

    Metar: nil

  • Payerne (LSMP)

    Taf: TAF LSMP 230525Z 2306/2412 05005KT 8000 BKN020 BECMG 2309/2311 CAVOK BECMG 2402/2404 8000 BKN020=

    Metar: nil

  • Amsterdam/Schipol (EHAM)

    Taf: TAF EHAM 230454Z 2306/2412 19004KT CAVOK BECMG 2314/2317 07005KT BECMG 2406/2409 11007KT=

    Metar: METAR EHAM 230825Z 26003KT CAVOK 20/15 Q1026 NOSIG=

  • Emmen (LSME)

    Taf: TAF LSME 230500Z NIL=

    Metar: nil

  • Friedrichshafen (EDNY)

    Taf: TAF EDNY 230500Z 2306/2406 03005KT 9999 SCT025 PROB30 TEMPO 2307/2309 BKN010 BECMG 2310/2312 03010KT BECMG 2321/2323 03005KT=

    Metar: nil

  • Alpnach (LSMA)

    Taf: TAF LSMA 230500Z NIL=

    Metar: nil

  • Meiringen (LSMM)

    Taf: TAF LSMM 230500Z NIL=

    Metar: nil

  • Nürnberg (EDDN)

    Taf: TAF EDDN 230500Z 2306/2406 VRB02KT CAVOK BECMG 2307/2309 08005KT BECMG 2320/2322 VRB03KT=

    Metar: METAR EDDN 230850Z VRB02KT 9999 FEW035 23/13 Q1026 NOSIG=

  • Rouen (LFOP)

    Taf: TAF AMD LFOP 230500Z 2306/2406 CNL=

    Metar: nil

  • Evreux (LFOE)

    Taf: TAF LFOE 230800Z 2309/2409 08006KT CAVOK=

    Metar: nil

  • Erfurt/Bindersleben (EDDE)

    Taf: TAF EDDE 230500Z 2306/2406 21004KT CAVOK BECMG 2308/2310 07005KT=

    Metar: nil